Time;durP1;ratioP1;P1;durP2;ratioP2;P2;SDS_P1;SDS_P2;PMS_P1;PMS_P2;Temp;Humidity;BMP_temperature;BMP_pressure;BME280_temperature;BME280_humidity;BME280_pressure;Samples;Min_cycle;Max_cycle;Signal;HPM_P1;HPM_P2
2022/01/18 00:01:54;;;;;;;;;;;;;;;17.91;64.23;100704.81;5037155;28;1314;-33
2022/01/18 00:04:21;;;;;;;;;;;;;;;17.95;64.15;100716.97;5048258;28;1991;-33
2022/01/18 00:06:50;;;;;;;;;;;;;;;17.94;63.96;100742.00;5039720;28;1587;-32
2022/01/18 00:09:19;;;;;;;;;;;;;;;17.89;64.33;100750.44;5036784;28;1722;-33
2022/01/18 00:11:50;;;;;;;;;;;;;;;17.89;64.51;100753.94;5043993;28;1602;-32
2022/01/18 00:14:25;;;;;;;;;;;;;;;17.86;64.43;100762.22;5044192;28;1771;-32
2022/01/18 00:17:03;;;;;;;;;;;;;;;17.85;64.17;100792.63;5051748;28;1898;-33
2022/01/18 00:19:33;;;;;;;;;;;;;;;17.91;64.11;100823.38;5042737;28;1072;-32
2022/01/18 00:22:11;;;;;;;;;;;;;;;17.88;64.05;100845.03;5047914;28;1761;-33
2022/01/18 00:24:39;;;;;;;;;;;;;;;17.93;64.13;100852.69;5043000;28;1656;-33
2022/01/18 00:27:09;;;;;;;;;;;;;;;17.92;63.97;100848.31;5043544;28;1520;-32
2022/01/18 00:29:38;;;;;;;;;;;;;;;17.85;64.00;100853.31;5044711;28;1587;-32
2022/01/18 00:32:11;;;;;;;;;;;;;;;17.82;64.14;100857.03;5044741;28;1853;-33
2022/01/18 00:34:41;;;;;;;;;;;;;;;17.80;64.04;100887.56;5044944;28;1085;-32
2022/01/18 00:37:26;;;;;;;;;;;;;;;17.77;63.92;100895.84;5042406;28;1911;-32
2022/01/18 00:39:53;;;;;;;;;;;;;;;17.82;64.00;100917.72;5044988;28;1146;-33
2022/01/18 00:42:19;;;;;;;;;;;;;;;17.84;64.05;100931.84;5040666;28;1566;-32
2022/01/18 00:44:46;;;;;;;;;;;;;;;17.83;64.01;100947.06;5050007;28;1626;-33
2022/01/18 00:47:12;;;;;;;;;;;;;;;17.81;64.04;100932.94;5034293;28;1846;-33
2022/01/18 00:49:44;;;;;;;;;;;;;;;17.87;64.27;100966.41;5044784;28;1146;-33
2022/01/18 00:52:11;;;;;;;;;;;;;;;17.81;63.83;100999.81;5042263;28;1151;-32
2022/01/18 00:54:40;;;;;;;;;;;;;;;17.76;63.95;100996.63;5046343;28;1845;-32
2022/01/18 00:57:07;;;;;;;;;;;;;;;17.76;63.93;100993.94;5039106;28;1914;-32
2022/01/18 00:59:34;;;;;;;;;;;;;;;17.75;63.97;100992.28;5044918;28;1616;-33
2022/01/18 01:02:00;;;;;;;;;;;;;;;17.73;64.16;101002.25;5051264;28;1394;-32
2022/01/18 01:04:30;;;;;;;;;;;;;;;17.74;64.08;101011.09;5045388;28;1060;-33
2022/01/18 01:06:58;;;;;;;;;;;;;;;17.73;64.01;101012.94;5044614;28;1766;-32
2022/01/18 01:09:25;;;;;;;;;;;;;;;17.72;63.83;101042.47;5035901;28;1833;-33
2022/01/18 01:11:51;;;;;;;;;;;;;;;17.72;64.29;101042.47;5043558;28;1751;-32
2022/01/18 01:14:21;;;;;;;;;;;;;;;17.72;63.80;101037.13;5047017;28;1619;-33
2022/01/18 01:17:01;;;;;;;;;;;;;;;17.66;63.92;101033.94;5042521;28;1906;-32
2022/01/18 01:19:48;;;;;;;;;;;;;;;17.67;64.06;101035.66;5041409;28;1167;-33
2022/01/18 01:36:17;;;;;;;;;;;;;;;17.72;63.58;101058.53;5044564;28;1396;-32
2022/01/18 01:41:44;;;;;;;;;;;;;;;17.70;63.44;101066.66;5045975;28;1405;-32
2022/01/18 01:44:22;;;;;;;;;;;;;;;17.68;63.43;101080.13;5047739;28;1767;-33
2022/01/18 01:46:49;;;;;;;;;;;;;;;17.68;63.50;101081.97;5040378;28;1079;-32
2022/01/18 01:49:16;;;;;;;;;;;;;;;17.64;63.28;101083.19;5048457;28;1841;-33
2022/01/18 01:51:42;;;;;;;;;;;;;;;17.64;63.67;101088.53;5047566;28;1983;-32
2022/01/18 01:54:11;;;;;;;;;;;;;;;17.63;63.60;101094.88;5043133;28;1595;-32
2022/01/18 01:56:38;;;;;;;;;;;;;;;17.63;63.50;101092.19;5047143;28;1575;-33
2022/01/18 01:59:04;;;;;;;;;;;;;;;17.63;63.67;101102.88;5048095;28;1976;-33
2022/01/18 02:01:38;;;;;;;;;;;;;;;17.63;63.65;101102.88;5042513;28;1317;-32
2022/01/18 02:04:05;;;;;;;;;;;;;;;17.63;63.42;101110.91;5047805;28;2054;-32
2022/01/18 02:06:31;;;;;;;;;;;;;;;17.62;63.44;101123.41;5046037;28;1784;-32
2022/01/18 02:08:58;;;;;;;;;;;;;;;17.66;63.32;101118.69;5039465;28;1592;-33
2022/01/18 02:11:25;;;;;;;;;;;;;;;17.73;63.08;101119.94;5048381;28;1700;-32
2022/01/18 02:13:52;;;;;;;;;;;;;;;17.72;62.76;101126.22;5044499;28;1106;-32
2022/01/18 02:21:49;;;;;;;;;;;;;;;17.64;63.21;101144.69;5050122;28;1674;-32
2022/01/18 02:24:17;;;;;;;;;;;;;;;17.61;63.28;101150.28;5046078;28;1814;-33
2022/01/18 02:26:43;;;;;;;;;;;;;;;17.58;63.42;101155.84;5052267;28;1530;-32
2022/01/18 02:29:10;;;;;;;;;;;;;;;17.59;63.27;101174.47;5044154;28;1579;-32
2022/01/18 02:31:37;;;;;;;;;;;;;;;17.61;63.22;101166.34;5047540;28;1023;-32
2022/01/18 02:34:05;;;;;;;;;;;;;;;17.58;63.09;101169.22;5044539;28;1611;-32
2022/01/18 02:36:31;;;;;;;;;;;;;;;17.60;63.21;101170.81;5049241;28;1754;-33
2022/01/18 02:38:59;;;;;;;;;;;;;;;17.64;63.07;101182.13;5045391;28;1902;-32
2022/01/18 02:41:30;;;;;;;;;;;;;;;17.67;62.86;101182.75;5048894;28;1834;-33
2022/01/18 02:43:57;;;;;;;;;;;;;;;17.61;62.88;101201.94;5044631;28;1535;-32
2022/01/18 02:46:24;;;;;;;;;;;;;;;17.62;62.95;101208.16;5042496;28;1142;-32
2022/01/18 02:48:50;;;;;;;;;;;;;;;17.59;63.00;101219.94;5044360;28;1758;-33
2022/01/18 02:51:17;;;;;;;;;;;;;;;17.63;62.96;101240.13;5045280;28;1849;-33
2022/01/18 02:53:57;;;;;;;;;;;;;;;17.64;62.67;101232.94;5044905;28;1647;-32
2022/01/18 02:56:26;;;;;;;;;;;;;;;17.66;62.63;101236.38;5040675;28;1682;-33
2022/01/18 02:58:58;;;;;;;;;;;;;;;17.65;62.71;101234.66;5046500;28;1977;-32
2022/01/18 03:04:09;;;;;;;;;;;;;;;17.58;62.92;101239.59;5026077;28;1631;-33
2022/01/18 03:06:35;;;;;;;;;;;;;;;17.56;63.05;101254.91;5016091;28;1092;-33
2022/01/18 03:09:03;;;;;;;;;;;;;;;17.55;62.89;101255.91;5026301;28;1857;-33
2022/01/18 03:11:36;;;;;;;;;;;;;;;17.52;63.01;101244.56;5031113;28;1559;-33
2022/01/18 03:14:04;;;;;;;;;;;;;;;17.48;62.90;101255.47;5025786;28;1939;-32
2022/01/18 03:16:31;;;;;;;;;;;;;;;17.47;62.94;101255.63;5030863;28;1424;-33
2022/01/18 03:18:58;;;;;;;;;;;;;;;17.47;63.00;101253.78;5018435;28;1919;-32
2022/01/18 03:21:26;;;;;;;;;;;;;;;17.50;62.88;101269.59;5021974;28;1078;-32
2022/01/18 03:24:09;;;;;;;;;;;;;;;17.50;62.97;101274.94;5027313;28;1734;-32
2022/01/18 03:28:04;;;;;;;;;;;;;;;17.50;62.95;101290.97;5022585;28;1773;-32
2022/01/18 03:29:26;;;;;;;;;;;;;;;17.48;62.92;101282.22;5034193;28;869;-33
2022/01/18 03:31:52;;;;;;;;;;;;;;;17.50;62.75;101290.97;5027369;28;1908;-32
2022/01/18 03:34:19;;;;;;;;;;;;;;;17.55;62.59;101284.44;5022730;28;1917;-33
2022/01/18 03:36:47;;;;;;;;;;;;;;;17.57;62.60;101301.25;5031251;28;1629;-32
2022/01/18 03:39:14;;;;;;;;;;;;;;;17.60;62.41;101303.69;5019864;28;1898;-33
2022/01/18 03:41:51;;;;;;;;;;;;;;;17.58;62.53;101308.28;5020197;28;1894;-32
2022/01/18 03:44:23;;;;;;;;;;;;;;;17.59;62.00;101326.06;5025512;28;1344;-32
2022/01/18 03:46:53;;;;;;;;;;;;;;;17.58;62.37;101321.66;5035127;28;1051;-33
2022/01/18 03:49:23;;;;;;;;;;;;;;;17.55;62.51;101324.53;5022362;28;1811;-33
2022/01/18 03:51:50;;;;;;;;;;;;;;;17.57;62.33;101334.19;5030419;28;1861;-35
2022/01/18 03:54:22;;;;;;;;;;;;;;;17.59;62.52;101329.59;5016152;28;2004;-33
2022/01/18 03:56:54;;;;;;;;;;;;;;;17.61;62.08;101342.84;5026414;28;2014;-33
2022/01/18 03:59:24;;;;;;;;;;;;;;;17.56;62.30;101353.84;5026897;28;1980;-33
2022/01/18 04:01:51;;;;;;;;;;;;;;;17.48;62.60;101357.09;5031106;28;1333;-32
2022/01/18 04:04:19;;;;;;;;;;;;;;;17.47;62.61;101382.13;5018120;28;1854;-33
2022/01/18 04:06:45;;;;;;;;;;;;;;;17.47;62.62;101382.13;5031905;28;1824;-32
2022/01/18 04:09:12;;;;;;;;;;;;;;;17.46;62.62;101401.81;5025652;28;1586;-33
2022/01/18 04:11:40;;;;;;;;;;;;;;;17.46;62.86;101407.16;5024973;28;1739;-32
2022/01/18 04:17:01;;;;;;;;;;;;;;;17.55;62.16;101419.03;5031944;28;1745;-33
2022/01/18 04:25:50;;;;;;;;;;;;;;;17.57;62.40;101424.25;5017673;28;1909;-33
2022/01/18 04:28:02;;;;;;;;;;;;;;;17.50;62.22;101431.84;5019429;28;1813;-32
2022/01/18 04:30:34;;;;;;;;;;;;;;;17.49;62.09;101436.34;5019798;28;1185;-33
2022/01/18 04:33:02;;;;;;;;;;;;;;;17.43;62.31;101430.59;5030537;28;1738;-32
2022/01/18 04:35:29;;;;;;;;;;;;;;;17.48;62.02;101461.38;5014998;28;1818;-32
2022/01/18 04:37:55;;;;;;;;;;;;;;;17.49;62.47;101464.91;5024516;28;1981;-32
2022/01/18 04:40:27;;;;;;;;;;;;;;;17.40;62.29;101458.38;5014204;28;1957;-32
2022/01/18 04:43:15;;;;;;;;;;;;;;;17.40;62.25;101444.16;5019621;28;2047;-33
2022/01/18 04:48:49;;;;;;;;;;;;;;;17.41;62.30;101456.59;5017133;28;1950;-33
2022/01/18 04:51:16;;;;;;;;;;;;;;;17.37;62.21;101458.63;5025131;28;1810;-33
2022/01/18 04:53:50;;;;;;;;;;;;;;;17.37;62.30;101469.31;5025198;28;1674;-32
2022/01/18 04:56:26;;;;;;;;;;;;;;;17.44;62.01;101491.97;5020392;28;1499;-33
2022/01/18 04:58:53;;;;;;;;;;;;;;;17.50;62.01;101494.19;5025285;28;1906;-32
2022/01/18 05:01:22;;;;;;;;;;;;;;;17.42;62.06;101483.19;5013656;28;1514;-32
2022/01/18 05:03:49;;;;;;;;;;;;;;;17.39;62.60;101494.13;5014349;28;1937;-32
2022/01/18 05:06:19;;;;;;;;;;;;;;;17.47;62.02;101505.13;5024866;28;1923;-32
2022/01/18 05:08:55;;;;;;;;;;;;;;;17.49;62.43;101516.56;5033420;28;1142;-32
2022/01/18 05:11:24;;;;;;;;;;;;;;;17.50;62.10;101531.63;5016082;28;1078;-33
2022/01/18 05:14:06;;;;;;;;;;;;;;;17.45;61.45;101539.16;5022523;28;1827;-32
2022/01/18 05:16:54;;;;;;;;;;;;;;;17.42;61.83;101534.00;5001056;28;1089;-33
2022/01/18 05:19:27;;;;;;;;;;;;;;;17.41;61.92;101548.34;5028054;28;1910;-33
2022/01/18 05:24:39;;;;;;;;;;;;;;;17.40;61.97;101551.13;5021800;28;742;-33
2022/01/18 05:27:06;;;;;;;;;;;;;;;17.34;62.07;101564.91;5024907;28;1906;-33
2022/01/18 05:29:33;;;;;;;;;;;;;;;17.35;62.22;101578.19;5029224;28;1662;-32
2022/01/18 05:32:01;;;;;;;;;;;;;;;17.36;62.44;101579.03;5015876;28;1606;-33
2022/01/18 05:34:28;;;;;;;;;;;;;;;17.35;61.90;101596.00;5027194;28;1231;-32
2022/01/18 05:37:02;;;;;;;;;;;;;;;17.37;61.75;101596.75;5018819;28;1983;-32
2022/01/18 05:39:32;;;;;;;;;;;;;;;17.37;61.62;101611.00;5018944;28;1967;-32
2022/01/18 05:41:58;;;;;;;;;;;;;;;17.41;61.58;101612.50;5020625;28;1575;-33
2022/01/18 05:44:33;;;;;;;;;;;;;;;17.43;61.57;101610.59;5025242;28;1758;-33
2022/01/18 05:47:10;;;;;;;;;;;;;;;17.47;61.68;101621.94;5019362;28;1551;-33
2022/01/18 05:49:36;;;;;;;;;;;;;;;17.40;61.86;101618.81;5020243;28;1070;-33
2022/01/18 05:52:03;;;;;;;;;;;;;;;17.41;61.86;101633.06;5024382;28;1508;-32
2022/01/18 05:54:33;;;;;;;;;;;;;;;17.38;61.95;101628.75;5021892;28;1942;-32
2022/01/18 05:57:01;;;;;;;;;;;;;;;17.41;61.89;101633.91;5021013;28;1609;-30
2022/01/18 05:59:36;;;;;;;;;;;;;;;17.95;60.39;101632.06;5029786;28;1972;-32
2022/01/18 06:02:14;;;;;;;;;;;;;;;18.64;58.76;101625.28;5029942;28;1341;-36
2022/01/18 06:10:12;;;;;;;;;;;;;;;19.08;57.51;101626.53;5029498;28;1454;-32
2022/01/18 06:12:50;;;;;;;;;;;;;;;19.11;57.68;101629.94;5030547;28;1449;-32
2022/01/18 06:15:17;;;;;;;;;;;;;;;19.07;57.99;101635.53;5029459;28;1510;-33
2022/01/18 06:17:47;;;;;;;;;;;;;;;19.16;57.81;101627.75;5030949;28;1515;-32
2022/01/18 06:20:16;;;;;;;;;;;;;;;19.22;57.76;101627.31;5031363;28;1980;-32
2022/01/18 06:22:43;;;;;;;;;;;;;;;19.22;57.54;101627.31;5032500;28;1383;-32
2022/01/18 06:25:13;;;;;;;;;;;;;;;19.36;56.80;101626.25;5034715;28;1576;-32
2022/01/18 06:27:43;;;;;;;;;;;;;;;19.44;58.12;101640.81;5032994;28;1678;-32
2022/01/18 06:30:11;;;;;;;;;;;;;;;19.63;58.14;101632.19;5030941;28;1465;-32
2022/01/18 06:32:38;;;;;;;;;;;;;;;19.66;57.97;101615.00;5033131;28;1591;-32
2022/01/18 06:35:07;;;;;;;;;;;;;;;19.74;57.89;101630.56;5026600;28;1457;-32
2022/01/18 06:37:34;;;;;;;;;;;;;;;19.67;58.74;101627.44;5023283;28;1616;-33
2022/01/18 06:40:02;;;;;;;;;;;;;;;19.70;57.90;101640.63;5029806;28;1906;-32
2022/01/18 06:42:37;;;;;;;;;;;;;;;19.69;58.79;101622.81;5021949;28;1383;-33
2022/01/18 06:45:04;;;;;;;;;;;;;;;19.72;59.46;101649.44;5024806;28;2117;-33
2022/01/18 06:47:30;;;;;;;;;;;;;;;19.62;58.62;101649.28;5028034;28;1613;-32
2022/01/18 06:49:57;;;;;;;;;;;;;;;19.53;58.44;101649.97;5026179;28;1525;-32
2022/01/18 06:52:24;;;;;;;;;;;;;;;19.48;59.46;101654.84;5022460;28;1409;-33
2022/01/18 06:54:51;;;;;;;;;;;;;;;19.38;59.24;101652.00;5022294;28;1015;-33
2022/01/18 06:57:18;;;;;;;;;;;;;;;19.32;60.14;101679.28;5027231;28;1911;-34
2022/01/18 06:59:44;;;;;;;;;;;;;;;19.26;59.92;101666.34;5019840;28;1976;-32
2022/01/18 07:02:11;;;;;;;;;;;;;;;19.22;59.69;101667.56;5032605;28;1643;-33
2022/01/18 07:04:37;;;;;;;;;;;;;;;19.20;59.23;101670.34;5026548;28;1157;-32
2022/01/18 07:07:04;;;;;;;;;;;;;;;19.21;59.21;101665.81;5027065;28;1818;-33
2022/01/18 07:09:32;;;;;;;;;;;;;;;19.18;59.49;101669.59;5019562;28;1726;-33
2022/01/18 07:12:00;;;;;;;;;;;;;;;19.17;59.69;101680.44;5022607;28;1584;-33
2022/01/18 07:14:27;;;;;;;;;;;;;;;19.12;59.25;101671.88;5027405;28;1731;-33
2022/01/18 07:16:53;;;;;;;;;;;;;;;19.10;60.00;101673.81;5024370;28;1583;-32
2022/01/18 07:19:20;;;;;;;;;;;;;;;19.10;59.68;101665.75;5028713;28;1906;-32
2022/01/18 07:21:46;;;;;;;;;;;;;;;19.03;58.26;101673.41;5030587;28;1834;-33
2022/01/18 07:24:19;;;;;;;;;;;;;;;19.04;57.57;101673.31;5020474;28;1409;-32
2022/01/18 07:26:48;;;;;;;;;;;;;;;19.05;58.74;101693.78;5025414;28;1484;-32
2022/01/18 07:29:15;;;;;;;;;;;;;;;19.09;58.25;101694.41;5028967;28;1683;-32
2022/01/18 07:31:42;;;;;;;;;;;;;;;19.10;58.15;101681.84;5023911;28;1953;-34
2022/01/18 07:34:09;;;;;;;;;;;;;;;19.09;59.65;101683.69;5027213;28;1542;-34
2022/01/18 07:36:35;;;;;;;;;;;;;;;19.14;59.52;101680.66;5024730;28;1828;-33
2022/01/18 07:39:02;;;;;;;;;;;;;;;19.07;59.05;101680.25;5028934;28;1975;-32
2022/01/18 07:41:28;;;;;;;;;;;;;;;19.08;59.75;101688.19;5024241;28;1514;-34
2022/01/18 07:43:56;;;;;;;;;;;;;;;19.08;60.55;101685.50;5028633;28;1851;-32
2022/01/18 07:46:22;;;;;;;;;;;;;;;19.10;59.43;101706.84;5034856;28;1060;-32
2022/01/18 07:48:49;;;;;;;;;;;;;;;19.13;60.40;101706.63;5026239;28;1778;-33
2022/01/18 07:51:16;;;;;;;;;;;;;;;19.21;60.01;101708.72;5027207;28;1734;-32
2022/01/18 07:53:42;;;;;;;;;;;;;;;19.21;59.39;101711.41;5027338;28;1508;-33
2022/01/18 07:56:09;;;;;;;;;;;;;;;19.24;60.07;101713.88;5028431;28;1937;-32
2022/01/18 07:58:36;;;;;;;;;;;;;;;19.31;59.93;101725.84;5022102;28;1679;-32
2022/01/18 08:01:03;;;;;;;;;;;;;;;19.25;59.45;101702.16;5027962;28;1887;-33
2022/01/18 08:03:33;;;;;;;;;;;;;;;19.30;59.53;101724.16;5018688;28;1950;-33
2022/01/18 08:06:01;;;;;;;;;;;;;;;19.31;59.84;101725.00;5016713;28;1859;-32
2022/01/18 08:08:27;;;;;;;;;;;;;;;19.30;60.02;101728.63;5034428;28;1103;-32
2022/01/18 08:10:53;;;;;;;;;;;;;;;19.30;60.30;101734.88;5026375;28;1708;-33
2022/01/18 08:13:24;;;;;;;;;;;;;;;19.38;59.59;101728.94;5028582;28;1564;-32
2022/01/18 08:15:58;;;;;;;;;;;;;;;19.44;60.05;101732.00;5024805;28;1500;-32
2022/01/18 08:18:26;;;;;;;;;;;;;;;19.47;58.81;101736.28;5022916;28;1677;-33
2022/01/18 08:21:00;;;;;;;;;;;;;;;19.44;59.55;101747.25;5025842;28;1996;-32
2022/01/18 08:23:28;;;;;;;;;;;;;;;19.48;59.03;101733.50;5032741;28;1564;-32
2022/01/18 08:25:55;;;;;;;;;;;;;;;19.45;59.92;101744.44;5031800;28;1929;-33
2022/01/18 08:28:26;;;;;;;;;;;;;;;19.46;59.49;101756.91;5018663;28;1055;-32
2022/01/18 08:30:53;;;;;;;;;;;;;;;19.46;58.76;101750.69;5025459;28;1962;-33
2022/01/18 08:33:21;;;;;;;;;;;;;;;19.44;58.72;101768.72;5031646;28;1965;-32
2022/01/18 08:35:54;;;;;;;;;;;;;;;19.42;58.85;101746.50;5025182;28;2143;-33
2022/01/18 08:38:22;;;;;;;;;;;;;;;19.39;60.00;101752.94;5027616;28;1354;-32
2022/01/18 08:40:49;;;;;;;;;;;;;;;19.45;59.10;101743.59;5024778;28;1910;-33
2022/01/18 08:43:17;;;;;;;;;;;;;;;19.53;59.25;101734.97;5027950;28;2120;-33
2022/01/18 08:45:53;;;;;;;;;;;;;;;19.50;59.85;101740.56;5026786;28;1879;-33
2022/01/18 08:48:28;;;;;;;;;;;;;;;19.53;60.44;101751.06;5019954;28;1473;-33
2022/01/18 08:50:55;;;;;;;;;;;;;;;19.53;59.69;101754.59;5026654;28;1573;-33
2022/01/18 08:53:23;;;;;;;;;;;;;;;19.56;58.85;101757.06;5027680;28;2009;-33
2022/01/18 08:55:52;;;;;;;;;;;;;;;19.57;60.03;101760.59;5019351;28;1735;-33
2022/01/18 08:58:21;;;;;;;;;;;;;;;19.55;59.66;101744.59;5028449;28;1613;-33
2022/01/18 09:00:49;;;;;;;;;;;;;;;19.51;60.45;101742.28;5032713;28;1902;-34
2022/01/18 09:03:15;;;;;;;;;;;;;;;19.50;59.84;101741.44;5030322;28;1921;-33
2022/01/18 09:05:44;;;;;;;;;;;;;;;19.43;59.33;101722.22;5029590;28;1694;-33
2022/01/18 09:08:13;;;;;;;;;;;;;;;19.37;60.57;101735.25;5019938;28;1784;-34
2022/01/18 09:10:39;;;;;;;;;;;;;;;19.43;59.93;101740.16;5021925;28;2124;-33
2022/01/18 09:13:06;;;;;;;;;;;;;;;19.41;59.80;101737.59;5026096;28;1777;-33
2022/01/18 09:15:41;;;;;;;;;;;;;;;19.35;59.69;101739.88;5021118;28;1532;-33
2022/01/18 09:18:08;;;;;;;;;;;;;;;19.31;60.12;101733.03;5028033;28;1937;-33
2022/01/18 09:20:35;;;;;;;;;;;;;;;19.36;60.53;101728.16;5016580;28;1997;-33
2022/01/18 09:23:01;;;;;;;;;;;;;;;19.35;60.38;101721.97;5026578;28;1566;-33
2022/01/18 09:25:31;;;;;;;;;;;;;;;19.32;61.08;101724.88;5023123;28;1508;-33
2022/01/18 09:27:58;;;;;;;;;;;;;;;19.34;60.48;101720.25;5023312;28;1466;-33
2022/01/18 09:30:26;;;;;;;;;;;;;;;19.38;60.27;101710.16;5021815;28;1581;-33
2022/01/18 09:32:54;;;;;;;;;;;;;;;19.29;60.12;101711.69;5021432;28;1444;-33
2022/01/18 09:35:20;;;;;;;;;;;;;;;19.22;61.55;101722.03;5021158;28;1442;-34
2022/01/18 09:37:47;;;;;;;;;;;;;;;19.19;61.35;101706.16;5014458;28;1315;-33
2022/01/18 09:40:17;;;;;;;;;;;;;;;19.18;61.32;101708.94;5023672;28;1906;-36
2022/01/18 09:42:46;;;;;;;;;;;;;;;19.18;61.36;101698.22;5023520;28;1471;-34
2022/01/18 09:45:14;;;;;;;;;;;;;;;19.19;61.20;101718.72;5022459;28;1769;-33
2022/01/18 09:47:42;;;;;;;;;;;;;;;19.24;59.71;101697.78;5023440;28;1653;-33
2022/01/18 09:50:12;;;;;;;;;;;;;;;19.16;60.56;101689.44;5023351;28;1626;-33
2022/01/18 09:52:42;;;;;;;;;;;;;;;19.15;60.21;101707.34;5025754;28;1872;-33
2022/01/18 09:55:11;;;;;;;;;;;;;;;19.15;61.00;101714.53;5023998;28;1913;-33
2022/01/18 09:57:38;;;;;;;;;;;;;;;19.15;60.83;101714.53;5019946;28;1083;-33
2022/01/18 10:00:09;;;;;;;;;;;;;;;19.15;60.79;101715.41;5024985;28;1906;-35
2022/01/18 10:02:37;;;;;;;;;;;;;;;19.16;60.56;101717.13;5018718;28;1714;-33
2022/01/18 10:05:17;;;;;;;;;;;;;;;19.21;61.18;101724.81;5027778;28;1950;-33
2022/01/18 10:07:46;;;;;;;;;;;;;;;19.24;60.67;101730.81;5024837;28;1784;-33
2022/01/18 10:10:16;;;;;;;;;;;;;;;19.36;60.13;101733.53;5025892;28;2020;-33
2022/01/18 10:12:43;;;;;;;;;;;;;;;19.34;60.20;101730.13;5032670;28;1880;-34
2022/01/18 10:15:12;;;;;;;;;;;;;;;19.28;60.18;101739.50;5026420;28;1813;-34
2022/01/18 10:17:39;;;;;;;;;;;;;;;19.31;60.88;101757.19;5020521;28;1952;-34
2022/01/18 10:20:07;;;;;;;;;;;;;;;19.44;60.06;101745.44;5028380;28;1910;-33
2022/01/18 10:22:40;;;;;;;;;;;;;;;19.47;59.54;101742.50;5029483;28;1537;-33
2022/01/18 10:25:13;;;;;;;;;;;;;;;19.47;59.54;101752.38;5026791;28;1878;-34
2022/01/18 10:27:39;;;;;;;;;;;;;;;19.52;60.37;101768.13;5024088;28;1664;-33
2022/01/18 10:30:08;;;;;;;;;;;;;;;19.53;59.76;101751.06;5032707;28;1627;-33
2022/01/18 10:32:41;;;;;;;;;;;;;;;19.48;59.72;101765.69;5030453;28;1724;-33
2022/01/18 10:35:09;;;;;;;;;;;;;;;19.46;61.19;101762.25;5021818;28;1668;-33
2022/01/18 10:37:43;;;;;;;;;;;;;;;19.48;60.54;101768.38;5017754;28;1840;-33
2022/01/18 10:40:17;;;;;;;;;;;;;;;19.47;60.19;101774.69;5033440;28;1906;-33
2022/01/18 10:42:50;;;;;;;;;;;;;;;19.43;59.47;101762.47;5029726;28;1787;-32
2022/01/18 10:45:28;;;;;;;;;;;;;;;19.31;60.25;101763.38;5031038;28;1699;-34
2022/01/18 10:48:00;;;;;;;;;;;;;;;19.19;59.34;101751.75;5018201;28;1979;-33
2022/01/18 10:50:31;;;;;;;;;;;;;;;19.17;60.50;101771.59;5027733;28;1563;-33
2022/01/18 10:53:10;;;;;;;;;;;;;;;19.23;59.20;101760.41;5030995;28;1648;-33
2022/01/18 10:55:38;;;;;;;;;;;;;;;18.95;57.44;101762.44;5025463;28;1516;-33
2022/01/18 10:58:12;;;;;;;;;;;;;;;18.65;56.83;101765.47;5026863;28;1812;-33
2022/01/18 11:00:39;;;;;;;;;;;;;;;18.49;55.27;101771.03;5021648;28;1902;-34
2022/01/18 11:03:07;;;;;;;;;;;;;;;18.47;54.28;101787.22;5021427;28;1423;-33
2022/01/18 11:05:35;;;;;;;;;;;;;;;18.42;53.22;101780.44;5022853;28;1783;-34
2022/01/18 11:08:04;;;;;;;;;;;;;;;18.34;52.06;101786.34;5021101;28;1738;-33
2022/01/18 11:10:32;;;;;;;;;;;;;;;18.32;51.10;101782.06;5031237;28;1871;-33
2022/01/18 11:13:04;;;;;;;;;;;;;;;18.25;50.75;101790.53;5024935;28;1504;-33
2022/01/18 11:15:32;;;;;;;;;;;;;;;18.29;50.39;101781.31;5019147;28;1486;-33
2022/01/18 11:18:02;;;;;;;;;;;;;;;18.31;46.95;101775.84;5032338;28;1810;-33
2022/01/18 11:20:32;;;;;;;;;;;;;;;18.26;48.59;101762.81;5030660;28;1933;-33
2022/01/18 11:23:01;;;;;;;;;;;;;;;18.28;46.76;101763.56;5023032;28;1585;-33
2022/01/18 11:25:28;;;;;;;;;;;;;;;18.26;46.25;101757.44;5019704;28;1853;-33
2022/01/18 11:28:17;;;;;;;;;;;;;;;18.35;44.63;101763.13;5027141;28;1394;-33
2022/01/18 11:30:47;;;;;;;;;;;;;;;18.40;43.76;101755.59;5020465;28;1607;-32
2022/01/18 11:33:15;;;;;;;;;;;;;;;18.38;42.44;101761.09;5022236;28;1474;-33
2022/01/18 11:35:48;;;;;;;;;;;;;;;18.39;42.71;101775.31;5029432;28;1740;-33
2022/01/18 11:38:19;;;;;;;;;;;;;;;18.39;42.41;101769.97;5031987;28;1903;-33
2022/01/18 11:40:46;;;;;;;;;;;;;;;18.36;42.54;101756.78;5026392;28;1903;-34
2022/01/18 11:43:13;;;;;;;;;;;;;;;18.39;41.66;101767.28;5023661;28;2144;-33
2022/01/18 11:45:42;;;;;;;;;;;;;;;18.40;42.06;101769.00;5024831;28;2067;-34
2022/01/18 11:48:27;;;;;;;;;;;;;;;18.45;41.69;101773.06;5019257;28;1657;-33
2022/01/18 11:53:53;;;;;;;;;;;;;;;18.43;41.55;101763.44;5022419;28;2560;-33
2022/01/18 11:56:34;;;;;;;;;;;;;;;18.46;42.19;101768.56;5016396;28;1600;-34
2022/01/18 11:59:17;;;;;;;;;;;;;;;18.65;44.19;101755.59;5020533;28;1581;-32
2022/01/18 12:01:48;;;;;;;;;;;;;;;18.82;44.35;101761.59;5023320;28;1977;-34
2022/01/18 12:04:15;;;;;;;;;;;;;;;18.95;45.01;101765.09;5025270;28;1735;-33
2022/01/18 12:06:47;;;;;;;;;;;;;;;19.01;45.81;101769.16;5026927;28;1803;-33
2022/01/18 12:09:34;;;;;;;;;;;;;;;19.01;46.84;101766.50;5026787;28;2230;-33
2022/01/18 12:12:00;;;;;;;;;;;;;;;19.02;47.23;101766.38;5029942;28;1638;-33
2022/01/18 12:14:32;;;;;;;;;;;;;;;19.07;47.50;101766.91;5028102;28;1285;-32
2022/01/18 12:17:12;;;;;;;;;;;;;;;19.07;48.16;101756.16;5027386;28;1518;-33
2022/01/18 12:19:44;;;;;;;;;;;;;;;19.18;48.79;101757.19;5026502;28;1764;-32
2022/01/18 12:22:14;;;;;;;;;;;;;;;19.18;48.65;101763.44;5016797;28;1978;-33
2022/01/18 12:24:53;;;;;;;;;;;;;;;19.46;49.37;101750.69;5023814;28;1588;-32
2022/01/18 12:27:39;;;;;;;;;;;;;;;19.79;49.81;101751.81;5020679;28;1612;-34
2022/01/18 12:30:37;;;;;;;;;;;;;;;20.00;49.64;101762.75;5024597;28;1610;-34
2022/01/18 12:33:17;;;;;;;;;;;;;;;20.02;50.81;101772.38;5027997;28;2069;-34
2022/01/18 12:35:51;;;;;;;;;;;;;;;20.16;52.01;101740.94;5029998;28;1988;-34
2022/01/18 12:38:41;;;;;;;;;;;;;;;20.06;50.88;101740.78;5024932;28;1612;-33
2022/01/18 12:41:08;;;;;;;;;;;;;;;19.97;52.55;101760.28;5018638;28;1914;-34
2022/01/18 12:46:22;;;;;;;;;;;;;;;20.03;52.35;101743.69;5014390;28;1718;-33
2022/01/18 12:48:49;;;;;;;;;;;;;;;19.95;52.95;101751.50;5017310;28;1656;-35
2022/01/18 12:51:17;;;;;;;;;;;;;;;19.96;53.54;101740.66;5015024;28;1788;-34
2022/01/18 12:53:49;;;;;;;;;;;;;;;19.58;54.34;101740.84;5021812;28;1576;-34
2022/01/18 12:56:19;;;;;;;;;;;;;;;19.39;54.89;101752.94;5026379;28;1850;-33
2022/01/18 12:58:49;;;;;;;;;;;;;;;19.30;55.39;101756.31;5022040;28;1472;-33
2022/01/18 13:01:19;;;;;;;;;;;;;;;19.26;55.29;101758.38;4332061;28;10000790;-33
2022/01/18 13:03:47;;;;;;;;;;;;;;;19.25;55.88;101759.31;5021467;28;1514;-33
2022/01/18 13:06:19;;;;;;;;;;;;;;;19.19;56.27;101753.56;5023682;28;1518;-33
2022/01/18 13:08:50;;;;;;;;;;;;;;;19.05;55.66;101757.25;5018498;28;1494;-33
2022/01/18 13:11:21;;;;;;;;;;;;;;;19.01;56.01;101761.13;5028676;28;1632;-34
2022/01/18 13:13:56;;;;;;;;;;;;;;;18.99;55.50;101763.06;5023891;28;1991;-33
2022/01/18 13:25:12;;;;;;;;;;;;;;;19.03;55.74;101749.31;5028256;28;1327;-34
2022/01/18 13:27:43;;;;;;;;;;;;;;;19.04;55.89;101766.28;5019839;28;1098;-34
2022/01/18 13:30:26;;;;;;;;;;;;;;;19.18;55.69;101765.25;5026374;28;1503;-33
2022/01/18 13:32:56;;;;;;;;;;;;;;;19.16;55.05;101772.56;5029763;28;1946;-34
2022/01/18 13:35:29;;;;;;;;;;;;;;;19.02;55.18;101774.44;5035182;28;1401;-35
2022/01/18 13:37:58;;;;;;;;;;;;;;;19.04;55.77;101777.84;5028865;28;1644;-34
2022/01/18 13:40:30;;;;;;;;;;;;;;;19.03;56.12;101769.91;5023602;28;1906;-33
2022/01/18 13:43:14;;;;;;;;;;;;;;;19.09;56.44;101780.19;5028212;28;1415;-33
2022/01/18 13:45:44;;;;;;;;;;;;;;;19.20;56.64;101771.34;5031626;28;1258;-32
2022/01/18 13:48:13;;;;;;;;;;;;;;;19.10;56.61;101787.28;5034729;28;1852;-33
2022/01/18 13:50:44;;;;;;;;;;;;;;;19.13;56.66;101786.19;5027727;28;1702;-33
2022/01/18 13:53:14;;;;;;;;;;;;;;;19.05;56.89;101774.19;5029825;28;1488;-34
2022/01/18 13:58:50;;;;;;;;;;;;;;;18.98;57.05;101762.22;5127499;27;1464;-37
2022/01/18 14:01:24;;;;;;;;;;;;;;;18.92;57.11;101754.63;5124777;28;1493;-36
2022/01/18 14:03:52;;;;;;;;;;;;;;;19.02;56.54;101774.44;5098278;28;1907;-38
2022/01/18 14:06:23;;;;;;;;;;;;;;;19.01;56.41;101783.44;5108404;28;1487;-38